Time,TemperatureF,DewpointF,PressureIn,WindDirection,WindDirectionDegrees,WindSpeedMPH,WindSpeedGustMPH,Humidity,HourlyPrecipIn,Conditions,Clouds,dailyrainin,SoftwareType,DateUTC
2015-05-04 00:00:00,54.2,46.8,29.89,NNW,338,0.7,0.7,76,0.00,,,0.00,WUHU216HW,2015-05-04 05:00:00,
2015-05-04 00:05:00,54.2,47.2,29.89,NNW,338,0.4,0.7,77,0.00,,,0.00,WUHU216HW,2015-05-04 05:05:00,
2015-05-04 00:10:00,54.2,47.2,29.89,NNW,338,0.4,0.7,77,0.00,,,0.00,WUHU216HW,2015-05-04 05:10:00,
2015-05-04 00:30:00,53.5,47.2,29.91,NNW,338,0.0,0.0,79,0.00,,,0.00,WUHU216HW,2015-05-04 05:30:00,
2015-05-04 00:35:00,53.5,47.2,29.91,NNW,338,0.0,0.0,79,0.00,,,0.00,WUHU216HW,2015-05-04 05:35:00,
2015-05-04 00:40:00,53.5,47.2,29.91,NNW,338,0.0,0.0,79,0.00,,,0.00,WUHU216HW,2015-05-04 05:40:00,
2015-05-04 01:00:00,53.1,47.2,29.92,NNW,338,0.0,0.0,80,0.00,,,0.00,WUHU216HW,2015-05-04 06:00:00,
2015-05-04 01:05:00,53.1,47.2,29.92,NNW,338,0.0,0.0,80,0.00,,,0.00,WUHU216HW,2015-05-04 06:05:00,
2015-05-04 01:10:00,53.1,47.2,29.92,NNW,338,0.0,0.0,80,0.00,,,0.00,WUHU216HW,2015-05-04 06:10:00,
2015-05-04 01:30:00,53.1,47.4,29.92,NNW,338,0.4,0.4,81,0.00,,,0.00,WUHU216HW,2015-05-04 06:30:00,
2015-05-04 01:35:00,53.1,47.4,29.92,NNW,338,0.0,0.4,81,0.00,,,0.00,WUHU216HW,2015-05-04 06:35:00,
2015-05-04 01:40:00,53.1,47.4,29.92,NNW,338,0.0,0.4,81,0.00,,,0.00,WUHU216HW,2015-05-04 06:40:00,
2015-05-04 02:00:00,52.2,46.5,29.93,NNW,338,0.0,0.0,81,0.00,,,0.00,WUHU216HW,2015-05-04 07:00:00,
2015-05-04 02:05:00,52.2,46.5,29.93,NNW,338,0.0,0.0,81,0.00,,,0.00,WUHU216HW,2015-05-04 07:05:00,
2015-05-04 02:10:00,52.2,46.5,29.93,NNW,338,0.0,0.0,81,0.00,,,0.00,WUHU216HW,2015-05-04 07:10:00,
2015-05-04 02:30:00,50.8,45.1,29.93,NNW,338,1.1,1.1,81,0.00,,,0.00,WUHU216HW,2015-05-04 07:30:00,
2015-05-04 02:35:00,50.8,45.1,29.94,NNW,338,1.1,1.1,81,0.00,,,0.00,WUHU216HW,2015-05-04 07:35:00,
2015-05-04 02:40:00,50.8,45.1,29.94,NNW,338,1.1,1.1,81,0.00,,,0.00,WUHU216HW,2015-05-04 07:40:00,
2015-05-04 03:00:00,50.2,44.6,29.94,NW,315,0.9,0.9,81,0.00,,,0.00,WUHU216HW,2015-05-04 08:00:00,
2015-05-04 03:05:00,50.2,44.6,29.94,NW,315,0.9,0.9,81,0.00,,,0.00,WUHU216HW,2015-05-04 08:05:00,
2015-05-04 03:10:00,50.2,44.6,29.94,NW,315,0.9,0.9,81,0.00,,,0.00,WUHU216HW,2015-05-04 08:10:00,
2015-05-04 03:30:00,49.3,44.0,29.96,NNW,338,0.0,0.0,82,0.00,,,0.00,WUHU216HW,2015-05-04 08:30:00,
2015-05-04 03:35:00,49.3,44.0,29.96,NNW,338,0.0,0.0,82,0.00,,,0.00,WUHU216HW,2015-05-04 08:35:00,
2015-05-04 03:40:00,49.3,44.0,29.96,NNW,338,0.0,0.0,82,0.00,,,0.00,WUHU216HW,2015-05-04 08:40:00,
2015-05-04 04:00:00,49.0,44.0,29.98,NNE,23,1.1,1.1,83,0.00,,,0.00,WUHU216HW,2015-05-04 09:00:00,
2015-05-04 04:05:00,49.0,44.0,29.98,NW,315,3.1,3.8,83,0.00,,,0.00,WUHU216HW,2015-05-04 09:05:00,
2015-05-04 04:10:00,49.0,44.0,29.98,NW,315,3.1,3.8,83,0.00,,,0.00,WUHU216HW,2015-05-04 09:10:00,
2015-05-04 04:30:00,51.8,42.0,29.99,NNE,23,4.7,4.7,69,0.00,,,0.00,WUHU216HW,2015-05-04 09:30:00,
2015-05-04 04:35:00,52.0,43.0,29.99,NNE,23,4.7,4.7,71,0.00,,,0.00,WUHU216HW,2015-05-04 09:35:00,
2015-05-04 04:40:00,52.0,43.0,29.99,NNE,23,4.7,4.7,71,0.00,,,0.00,WUHU216HW,2015-05-04 09:40:00,
2015-05-04 05:00:00,51.8,41.2,30.00,NNE,23,2.5,2.5,67,0.00,,,0.00,WUHU216HW,2015-05-04 10:00:00,
2015-05-04 05:05:00,51.7,41.0,30.00,NNE,23,2.0,2.5,67,0.00,,,0.00,WUHU216HW,2015-05-04 10:05:00,
2015-05-04 05:10:00,51.7,41.0,30.00,NNE,23,2.0,2.0,67,0.00,,,0.00,WUHU216HW,2015-05-04 10:10:00,
2015-05-04 05:30:00,51.5,40.5,30.01,East,90,1.3,1.3,66,0.00,,,0.00,WUHU216HW,2015-05-04 10:30:00,
2015-05-04 05:35:00,51.5,40.5,30.01,NNE,23,1.8,1.8,66,0.00,,,0.00,WUHU216HW,2015-05-04 10:35:00,
2015-05-04 05:40:00,51.5,40.5,30.01,NNE,23,1.8,1.8,66,0.00,,,0.00,WUHU216HW,2015-05-04 10:40:00,
2015-05-04 06:00:00,51.1,39.7,30.03,NNE,23,3.8,3.8,65,0.00,,,0.00,WUHU216HW,2015-05-04 11:00:00,
2015-05-04 06:05:00,51.1,39.7,30.03,North,0,1.1,3.8,65,0.00,,,0.00,WUHU216HW,2015-05-04 11:05:00,
2015-05-04 06:10:00,51.1,39.7,30.03,North,0,1.1,3.8,65,0.00,,,0.00,WUHU216HW,2015-05-04 11:10:00,
2015-05-04 06:30:00,50.8,39.4,30.05,NNE,23,4.7,4.7,65,0.00,,,0.00,WUHU216HW,2015-05-04 11:30:00,
2015-05-04 06:35:00,50.9,39.5,30.05,NNE,23,4.7,4.7,65,0.00,,,0.00,WUHU216HW,2015-05-04 11:35:00,
2015-05-04 06:40:00,50.9,39.5,30.05,NNE,23,4.7,4.7,65,0.00,,,0.00,WUHU216HW,2015-05-04 11:40:00,
2015-05-04 07:00:00,53.3,41.4,30.07,North,0,1.8,1.8,64,0.00,,,0.00,WUHU216HW,2015-05-04 12:00:00,
2015-05-04 07:05:00,53.3,41.4,30.07,North,0,1.8,1.8,64,0.00,,,0.00,WUHU216HW,2015-05-04 12:05:00,
2015-05-04 07:10:00,53.3,41.4,30.07,North,0,1.8,1.8,64,0.00,,,0.00,WUHU216HW,2015-05-04 12:10:00,
2015-05-04 07:30:00,58.7,43.5,30.07,North,0,4.7,4.7,57,0.00,,,0.00,WUHU216HW,2015-05-04 12:30:00,
2015-05-04 07:35:00,58.7,43.5,30.07,NNE,23,2.9,4.7,57,0.00,,,0.00,WUHU216HW,2015-05-04 12:35:00,
2015-05-04 07:40:00,58.7,43.5,30.07,NNE,23,2.9,2.9,57,0.00,,,0.00,WUHU216HW,2015-05-04 12:40:00,
2015-05-04 08:00:00,60.8,41.6,30.08,NNE,23,3.4,3.4,49,0.00,,,0.00,WUHU216HW,2015-05-04 13:00:00,
2015-05-04 08:05:00,60.8,41.6,30.08,NNE,23,3.4,3.4,49,0.00,,,0.00,WUHU216HW,2015-05-04 13:05:00,
2015-05-04 08:10:00,60.8,41.6,30.08,NNE,23,3.4,3.4,49,0.00,,,0.00,WUHU216HW,2015-05-04 13:10:00,
2015-05-04 08:30:00,61.2,39.6,30.09,ESE,113,3.1,3.1,45,0.00,,,0.00,WUHU216HW,2015-05-04 13:30:00,
2015-05-04 08:35:00,61.0,39.4,30.09,East,90,3.4,3.4,45,0.00,,,0.00,WUHU216HW,2015-05-04 13:35:00,
2015-05-04 08:40:00,61.0,39.4,30.09,East,90,3.4,3.4,45,0.00,,,0.00,WUHU216HW,2015-05-04 13:40:00,
2015-05-04 09:00:00,59.8,41.1,30.09,NE,45,5.8,5.8,50,0.00,,,0.00,WUHU216HW,2015-05-04 14:00:00,
2015-05-04 09:05:00,59.8,41.1,30.09,NE,45,5.8,5.8,50,0.00,,,0.00,WUHU216HW,2015-05-04 14:05:00,
2015-05-04 09:10:00,59.8,41.1,30.09,NE,45,5.8,5.8,50,0.00,,,0.00,WUHU216HW,2015-05-04 14:10:00,
2015-05-04 09:30:00,61.6,40.5,30.09,North,0,3.4,3.4,46,0.00,,,0.00,WUHU216HW,2015-05-04 14:30:00,
2015-05-04 09:35:00,61.6,40.5,30.09,North,0,3.4,3.4,46,0.00,,,0.00,WUHU216HW,2015-05-04 14:35:00,
2015-05-04 09:40:00,61.6,40.5,30.09,North,0,3.4,3.4,46,0.00,,,0.00,WUHU216HW,2015-05-04 14:40:00,
2015-05-04 10:00:00,63.0,40.1,30.11,NNE,23,6.9,6.9,43,0.00,,,0.00,WUHU216HW,2015-05-04 15:00:00,
2015-05-04 10:05:00,63.0,40.1,30.11,NNE,23,6.9,6.9,43,0.00,,,0.00,WUHU216HW,2015-05-04 15:05:00,
2015-05-04 10:10:00,63.0,40.1,30.11,NNE,23,6.9,6.9,43,0.00,,,0.00,WUHU216HW,2015-05-04 15:10:00,
2015-05-04 10:30:00,64.6,39.8,30.13,NNE,23,8.1,8.1,40,0.00,,,0.00,WUHU216HW,2015-05-04 15:30:00,
2015-05-04 10:35:00,64.6,40.3,30.13,North,0,6.3,8.1,41,0.00,,,0.00,WUHU216HW,2015-05-04 15:35:00,
2015-05-04 10:40:00,64.6,40.3,30.13,North,0,6.3,8.1,41,0.00,,,0.00,WUHU216HW,2015-05-04 15:40:00,
2015-05-04 11:00:00,65.9,38.0,30.13,ENE,68,7.2,7.2,36,0.00,,,0.00,WUHU216HW,2015-05-04 16:00:00,
2015-05-04 11:05:00,65.9,38.0,30.13,ENE,68,7.2,7.2,36,0.00,,,0.00,WUHU216HW,2015-05-04 16:05:00,
2015-05-04 11:10:00,65.9,38.0,30.13,ENE,68,7.2,7.2,36,0.00,,,0.00,WUHU216HW,2015-05-04 16:10:00,
2015-05-04 11:30:00,66.2,36.9,30.13,NNE,23,4.3,4.3,34,0.00,,,0.00,WUHU216HW,2015-05-04 16:30:00,
2015-05-04 11:35:00,66.2,36.9,30.13,East,90,8.5,8.5,34,0.00,,,0.00,WUHU216HW,2015-05-04 16:35:00,
2015-05-04 11:40:00,66.2,36.9,30.13,East,90,8.5,8.5,34,0.00,,,0.00,WUHU216HW,2015-05-04 16:40:00,
2015-05-04 12:00:00,67.5,38.7,30.14,NNW,338,5.6,5.6,35,0.00,,,0.00,WUHU216HW,2015-05-04 17:00:00,
2015-05-04 12:05:00,67.5,38.0,30.14,East,90,8.3,8.3,34,0.00,,,0.00,WUHU216HW,2015-05-04 17:05:00,
2015-05-04 12:10:00,67.5,38.0,30.14,East,90,8.3,8.3,34,0.00,,,0.00,WUHU216HW,2015-05-04 17:10:00,
2015-05-04 12:30:00,67.7,39.6,30.14,NNE,23,6.3,6.3,36,0.00,,,0.00,WUHU216HW,2015-05-04 17:30:00,
2015-05-04 12:35:00,67.7,40.3,30.14,NNE,23,6.3,6.3,37,0.00,,,0.00,WUHU216HW,2015-05-04 17:35:00,
2015-05-04 12:40:00,67.7,40.3,30.14,NNE,23,6.3,6.3,37,0.00,,,0.00,WUHU216HW,2015-05-04 17:40:00,
2015-05-04 13:00:00,68.2,37.1,30.13,NNE,23,6.9,6.9,32,0.00,,,0.00,WUHU216HW,2015-05-04 18:00:00,
2015-05-04 13:05:00,68.2,37.1,30.13,NNE,23,6.9,6.9,32,0.00,,,0.00,WUHU216HW,2015-05-04 18:05:00,
2015-05-04 13:10:00,68.2,37.1,30.13,NNE,23,6.9,6.9,32,0.00,,,0.00,WUHU216HW,2015-05-04 18:10:00,
2015-05-04 13:30:00,68.8,37.6,30.13,ENE,68,4.3,4.3,32,0.00,,,0.00,WUHU216HW,2015-05-04 18:30:00,
2015-05-04 13:35:00,68.8,37.6,30.13,ENE,68,4.3,4.3,32,0.00,,,0.00,WUHU216HW,2015-05-04 18:35:00,
2015-05-04 13:40:00,68.8,37.6,30.13,ENE,68,4.3,4.3,32,0.00,,,0.00,WUHU216HW,2015-05-04 18:40:00,
2015-05-04 14:00:00,70.9,38.8,30.13,NNE,23,10.5,10.5,31,0.00,,,0.00,WUHU216HW,2015-05-04 19:00:00,
2015-05-04 14:05:00,70.9,38.8,30.13,NNE,23,10.5,10.5,31,0.00,,,0.00,WUHU216HW,2015-05-04 19:05:00,
2015-05-04 14:10:00,70.9,38.8,30.13,NNE,23,10.5,10.5,31,0.00,,,0.00,WUHU216HW,2015-05-04 19:10:00,
2015-05-04 14:30:00,70.9,39.5,30.12,NW,315,5.4,5.4,32,0.00,,,0.00,WUHU216HW,2015-05-04 19:30:00,
2015-05-04 14:35:00,70.9,39.5,30.12,North,0,6.9,6.9,32,0.00,,,0.00,WUHU216HW,2015-05-04 19:35:00,
2015-05-04 14:40:00,70.9,39.5,30.12,North,0,6.9,6.9,32,0.00,,,0.00,WUHU216HW,2015-05-04 19:40:00,
2015-05-04 15:00:00,70.2,38.2,30.12,North,0,8.5,8.5,31,0.00,,,0.00,WUHU216HW,2015-05-04 20:00:00,
2015-05-04 15:05:00,70.2,38.2,30.12,North,0,8.5,8.5,31,0.00,,,0.00,WUHU216HW,2015-05-04 20:05:00,
2015-05-04 15:10:00,70.2,38.2,30.12,North,0,8.5,8.5,31,0.00,,,0.00,WUHU216HW,2015-05-04 20:10:00,
2015-05-04 15:30:00,70.9,38.1,30.11,SE,135,6.9,6.9,30,0.00,,,0.00,WUHU216HW,2015-05-04 20:30:00,
2015-05-04 15:35:00,70.7,37.9,30.11,SE,135,6.9,6.9,30,0.00,,,0.00,WUHU216HW,2015-05-04 20:35:00,
2015-05-04 15:40:00,70.7,37.9,30.11,SE,135,6.9,6.9,30,0.00,,,0.00,WUHU216HW,2015-05-04 20:40:00,
2015-05-04 16:00:00,71.1,37.2,30.11,NNE,23,3.1,3.1,29,0.00,,,0.00,WUHU216HW,2015-05-04 21:00:00,
2015-05-04 16:05:00,71.1,38.3,30.11,ENE,68,2.7,3.1,30,0.00,,,0.00,WUHU216HW,2015-05-04 21:05:00,
2015-05-04 16:10:00,71.1,38.3,30.11,ENE,68,2.7,2.7,30,0.00,,,0.00,WUHU216HW,2015-05-04 21:10:00,
2015-05-04 16:30:00,69.8,36.1,30.11,East,90,2.5,2.5,29,0.00,,,0.00,WUHU216HW,2015-05-04 21:30:00,
2015-05-04 16:35:00,69.8,37.1,30.11,NNE,23,1.3,2.5,30,0.00,,,0.00,WUHU216HW,2015-05-04 21:35:00,
2015-05-04 16:40:00,69.8,37.1,30.11,NNE,23,1.3,2.5,30,0.00,,,0.00,WUHU216HW,2015-05-04 21:40:00,
2015-05-04 17:00:00,69.5,35.7,30.10,East,90,5.4,5.4,29,0.00,,,0.00,WUHU216HW,2015-05-04 22:00:00,
2015-05-04 17:05:00,69.5,34.7,30.10,East,90,4.7,5.4,28,0.00,,,0.00,WUHU216HW,2015-05-04 22:05:00,
2015-05-04 17:10:00,69.5,34.7,30.10,East,90,4.7,4.7,28,0.00,,,0.00,WUHU216HW,2015-05-04 22:10:00,
2015-05-04 17:30:00,69.5,32.8,30.11,East,90,4.0,4.0,26,0.00,,,0.00,WUHU216HW,2015-05-04 22:30:00,
2015-05-04 17:35:00,69.5,34.7,30.11,East,90,3.1,4.0,28,0.00,,,0.00,WUHU216HW,2015-05-04 22:35:00,
2015-05-04 17:40:00,69.5,34.7,30.11,East,90,3.1,4.0,28,0.00,,,0.00,WUHU216HW,2015-05-04 22:40:00,
2015-05-04 18:00:00,69.5,32.8,30.11,East,90,3.6,3.6,26,0.00,,,0.00,WUHU216HW,2015-05-04 23:00:00,
2015-05-04 18:05:00,69.5,34.7,30.11,East,90,3.6,3.6,28,0.00,,,0.00,WUHU216HW,2015-05-04 23:05:00,
2015-05-04 18:10:00,69.5,34.7,30.11,East,90,3.6,3.6,28,0.00,,,0.00,WUHU216HW,2015-05-04 23:10:00,
2015-05-04 18:30:00,68.8,32.1,30.11,East,90,2.9,2.9,26,0.00,,,0.00,WUHU216HW,2015-05-04 23:30:00,
2015-05-04 18:35:00,68.9,34.3,30.11,ESE,113,1.8,2.9,28,0.00,,,0.00,WUHU216HW,2015-05-04 23:35:00,
2015-05-04 18:40:00,68.9,34.3,30.11,ESE,113,1.8,2.9,28,0.00,,,0.00,WUHU216HW,2015-05-04 23:40:00,
2015-05-04 19:00:00,68.9,31.3,30.11,East,90,4.7,4.7,25,0.00,,,0.00,WUHU216HW,2015-05-05 00:00:00,
2015-05-04 19:05:00,68.9,33.3,30.11,NE,45,4.5,4.7,27,0.00,,,0.00,WUHU216HW,2015-05-05 00:05:00,
2015-05-04 19:10:00,68.9,33.3,30.11,NE,45,4.5,4.7,27,0.00,,,0.00,WUHU216HW,2015-05-05 00:10:00,
2015-05-04 19:30:00,68.0,34.5,30.11,East,90,2.0,2.0,29,0.00,,,0.00,WUHU216HW,2015-05-05 00:30:00,
2015-05-04 19:35:00,68.0,34.5,30.10,East,90,2.0,2.0,29,0.00,,,0.00,WUHU216HW,2015-05-05 00:35:00,
2015-05-04 19:40:00,68.0,34.5,30.10,East,90,2.0,2.0,29,0.00,,,0.00,WUHU216HW,2015-05-05 00:40:00,
2015-05-04 20:00:00,66.8,34.5,30.11,East,90,0.7,0.7,30,0.00,,,0.00,WUHU216HW,2015-05-05 01:00:00,
2015-05-04 20:05:00,66.6,34.3,30.11,NE,45,1.6,1.6,30,0.00,,,0.00,WUHU216HW,2015-05-05 01:05:00,
2015-05-04 20:10:00,66.6,34.3,30.11,NE,45,1.6,1.6,30,0.00,,,0.00,WUHU216HW,2015-05-05 01:10:00,
2015-05-04 20:30:00,63.4,37.2,30.11,NE,45,0.0,0.0,38,0.00,,,0.00,WUHU216HW,2015-05-05 01:30:00,
2015-05-04 20:35:00,63.4,37.2,30.11,NE,45,0.0,0.0,38,0.00,,,0.00,WUHU216HW,2015-05-05 01:35:00,
2015-05-04 20:40:00,63.4,37.2,30.11,NE,45,0.0,0.0,38,0.00,,,0.00,WUHU216HW,2015-05-05 01:40:00,
2015-05-04 21:00:00,60.1,37.4,30.12,SE,135,0.0,0.0,43,0.00,,,0.00,WUHU216HW,2015-05-05 02:00:00,
2015-05-04 21:05:00,60.1,37.4,30.12,SE,135,0.0,0.0,43,0.00,,,0.00,WUHU216HW,2015-05-05 02:05:00,
2015-05-04 21:10:00,60.1,37.4,30.12,SE,135,0.0,0.0,43,0.00,,,0.00,WUHU216HW,2015-05-05 02:10:00,
2015-05-04 21:30:00,57.2,38.9,30.12,SE,135,0.0,0.0,50,0.00,,,0.00,WUHU216HW,2015-05-05 02:30:00,
2015-05-04 21:35:00,57.2,38.9,30.12,SE,135,0.0,0.0,50,0.00,,,0.00,WUHU216HW,2015-05-05 02:35:00,